createdAt,value
2022-09-12T00:01:27.717Z,100201.40
2022-09-12T00:04:03.756Z,100201.40
2022-09-12T00:06:38.307Z,100195.40
2022-09-12T00:09:14.571Z,100198.80
2022-09-12T00:11:48.677Z,100199.80
2022-09-12T00:14:22.249Z,100202.00
2022-09-12T00:16:58.697Z,100199.80
2022-09-12T00:19:31.800Z,100203.00
2022-09-12T00:22:04.869Z,100204.00
2022-09-12T00:24:37.752Z,100200.20
2022-09-12T00:27:10.755Z,100196.00
2022-09-12T00:29:44.337Z,100205.20
2022-09-12T00:32:17.125Z,100202.20
2022-09-12T00:34:50.310Z,100203.00
2022-09-12T00:37:22.992Z,100204.20
2022-09-12T00:39:56.764Z,100209.40
2022-09-12T00:42:29.674Z,100209.20
2022-09-12T00:45:02.255Z,100205.60
2022-09-12T00:47:36.727Z,100206.60
2022-09-12T00:50:13.640Z,100216.40
2022-09-12T00:52:52.489Z,100218.80
2022-09-12T00:55:29.126Z,100219.60
2022-09-12T00:58:06.955Z,100217.00
2022-09-12T01:00:40.058Z,100211.60
2022-09-12T01:03:15.936Z,100213.00
2022-09-12T01:06:00.151Z,100216.60
2022-09-12T01:08:34.540Z,100213.20
2022-09-12T01:11:08.037Z,100212.00
2022-09-12T01:13:40.855Z,100210.00
2022-09-12T01:16:14.006Z,100213.60
2022-09-12T01:19:09.454Z,100213.60
2022-09-12T01:21:57.113Z,100218.20
2022-09-12T01:25:08.344Z,100216.80
2022-09-12T01:28:01.530Z,100217.00
2022-09-12T01:30:53.278Z,100224.40
2022-09-12T01:33:50.033Z,100222.60
2022-09-12T01:36:46.129Z,100221.60
2022-09-12T01:39:31.711Z,100220.00
2022-09-12T01:42:17.189Z,100218.00
2022-09-12T01:45:03.410Z,100214.20
2022-09-12T01:47:44.470Z,100220.80
2022-09-12T01:50:21.794Z,100224.80
2022-09-12T01:52:59.346Z,100223.60
2022-09-12T01:55:36.428Z,100222.60
2022-09-12T01:58:14.542Z,100219.00
2022-09-12T02:01:01.311Z,100221.40
2022-09-12T02:03:41.191Z,100221.40
2022-09-12T02:06:21.109Z,100222.20
2022-09-12T02:08:57.507Z,100226.80
2022-09-12T02:11:32.645Z,100226.20
2022-09-12T02:14:12.807Z,100225.60
2022-09-12T02:16:51.435Z,100222.80
2022-09-12T02:19:28.472Z,100221.40
2022-09-12T02:22:04.870Z,100219.40
2022-09-12T02:24:41.556Z,100219.60
2022-09-12T02:27:19.623Z,100213.20
2022-09-12T02:29:52.809Z,100214.20
2022-09-12T02:32:36.547Z,100217.00
2022-09-12T02:35:18.791Z,100216.20
2022-09-12T02:38:01.294Z,100218.00
2022-09-12T02:40:34.851Z,100217.40
2022-09-12T02:43:08.463Z,100214.60
2022-09-12T02:45:41.357Z,100216.20
2022-09-12T02:48:20.646Z,100220.60
2022-09-12T02:50:53.439Z,100228.20
2022-09-12T02:53:27.263Z,100230.40
2022-09-12T02:56:00.162Z,100230.00
2022-09-12T02:58:34.977Z,100232.80
2022-09-12T03:01:20.339Z,100228.20
2022-09-12T03:04:15.909Z,100234.00
2022-09-12T03:06:59.607Z,100235.60
2022-09-12T03:09:44.357Z,100234.40
2022-09-12T03:12:36.035Z,100235.80
2022-09-12T03:15:29.400Z,100233.60
2022-09-12T03:18:26.965Z,100233.40
2022-09-12T03:21:11.932Z,100231.40
2022-09-12T03:23:52.294Z,100225.20
2022-09-12T03:26:37.733Z,100222.80
2022-09-12T03:29:12.499Z,100217.40
2022-09-12T03:31:56.084Z,100211.00
2022-09-12T03:34:30.437Z,100209.00
2022-09-12T03:37:03.239Z,100208.20
2022-09-12T03:39:36.013Z,100209.80
2022-09-12T03:42:09.113Z,100212.60
2022-09-12T03:44:41.793Z,100218.20
2022-09-12T03:47:14.675Z,100217.00
2022-09-12T03:49:47.676Z,100220.80
2022-09-12T03:52:20.371Z,100216.20
2022-09-12T03:54:53.021Z,100217.40
2022-09-12T03:57:25.805Z,100220.20
2022-09-12T03:59:58.809Z,100223.00
2022-09-12T04:02:31.549Z,100225.40
2022-09-12T04:05:04.725Z,100229.80
2022-09-12T04:07:37.239Z,100230.60
2022-09-12T04:10:12.552Z,100231.00
2022-09-12T04:12:45.483Z,100239.20
2022-09-12T04:15:18.968Z,100236.20
2022-09-12T04:17:51.876Z,100241.20
2022-09-12T04:20:25.067Z,100240.00
2022-09-12T04:22:57.633Z,100241.20
2022-09-12T04:25:31.574Z,100236.00
2022-09-12T04:28:05.227Z,100241.00
2022-09-12T04:30:39.475Z,100239.40
2022-09-12T04:33:12.327Z,100239.80
2022-09-12T04:35:45.828Z,100242.20
2022-09-12T04:38:18.920Z,100239.40
2022-09-12T04:40:51.702Z,100235.80
2022-09-12T04:43:24.297Z,100239.20
2022-09-12T04:45:57.134Z,100236.80
2022-09-12T04:48:30.081Z,100238.40
2022-09-12T04:51:11.827Z,100234.80
2022-09-12T04:53:45.069Z,100240.60
2022-09-12T04:56:18.333Z,100240.20
2022-09-12T04:58:51.410Z,100239.00
2022-09-12T05:01:25.924Z,100242.20
2022-09-12T05:04:00.487Z,100244.60
2022-09-12T05:06:35.926Z,100248.20
2022-09-12T05:09:11.751Z,100248.60
2022-09-12T05:12:03.788Z,100252.20
2022-09-12T05:14:38.105Z,100257.00
2022-09-12T05:17:11.490Z,100258.00
2022-09-12T05:19:44.491Z,100266.20
2022-09-12T05:22:17.476Z,100264.20
2022-09-12T05:24:50.708Z,100263.60
2022-09-12T05:27:23.656Z,100271.20
2022-09-12T05:29:56.681Z,100274.00
2022-09-12T05:32:32.494Z,100272.60
2022-09-12T05:35:05.817Z,100270.00
2022-09-12T05:37:38.781Z,100272.20
2022-09-12T05:40:16.640Z,100272.80
2022-09-12T05:42:49.544Z,100271.60
2022-09-12T05:45:22.375Z,100275.00
2022-09-12T05:47:55.654Z,100279.60
2022-09-12T05:50:28.451Z,100286.20
2022-09-12T05:53:01.547Z,100287.80
2022-09-12T05:55:34.499Z,100285.40
2022-09-12T05:58:07.791Z,100286.00
2022-09-12T06:00:40.889Z,100286.40
2022-09-12T06:03:13.568Z,100283.60
2022-09-12T06:05:50.478Z,100287.00
2022-09-12T06:08:23.735Z,100287.60
2022-09-12T06:11:02.466Z,100284.80
2022-09-12T06:13:40.267Z,100288.20
2022-09-12T06:16:19.637Z,100292.00
2022-09-12T06:18:54.589Z,100289.60
2022-09-12T06:21:28.605Z,100292.40
2022-09-12T06:24:02.217Z,100287.20
2022-09-12T06:26:35.331Z,100285.80
2022-09-12T06:29:08.930Z,100282.60
2022-09-12T06:31:43.983Z,100284.40
2022-09-12T06:34:18.177Z,100284.20
2022-09-12T06:36:52.463Z,100285.60
2022-09-12T06:39:25.997Z,100280.80
2022-09-12T06:41:58.687Z,100283.20
2022-09-12T06:44:39.237Z,100285.60
2022-09-12T06:47:12.283Z,100286.60
2022-09-12T06:49:45.007Z,100288.60
2022-09-12T06:52:18.321Z,100291.20
2022-09-12T06:54:50.907Z,100283.80
2022-09-12T06:57:23.823Z,100279.60
2022-09-12T06:59:56.699Z,100286.60
2022-09-12T07:02:29.497Z,100282.40
2022-09-12T07:05:02.211Z,100282.40
2022-09-12T07:07:36.120Z,100276.40
2022-09-12T07:10:12.363Z,100280.60
2022-09-12T07:12:45.064Z,100284.20
2022-09-12T07:15:18.263Z,100292.60
2022-09-12T07:17:50.933Z,100288.40
2022-09-12T07:20:24.208Z,100286.00
2022-09-12T07:22:56.908Z,100287.80
2022-09-12T07:25:29.795Z,100289.40
2022-09-12T07:28:02.578Z,100295.40
2022-09-12T07:30:35.292Z,100293.60
2022-09-12T07:33:08.047Z,100291.60
2022-09-12T07:35:41.246Z,100294.20
2022-09-12T07:38:14.317Z,100301.00
2022-09-12T07:40:47.009Z,100300.20
2022-09-12T07:43:19.690Z,100303.00
2022-09-12T07:45:57.844Z,100310.40
2022-09-12T07:48:30.772Z,100313.60
2022-09-12T07:51:06.139Z,100312.60
2022-09-12T07:53:43.483Z,100312.80
2022-09-12T07:56:17.010Z,100315.40
2022-09-12T07:58:50.157Z,100310.20
2022-09-12T08:01:24.439Z,100315.20
2022-09-12T08:04:01.707Z,100318.00
2022-09-12T08:06:36.290Z,100313.40
2022-09-12T08:09:12.387Z,100314.80
2022-09-12T08:11:45.323Z,100314.00
2022-09-12T08:14:18.769Z,100317.60
2022-09-12T08:16:51.549Z,100324.00
2022-09-12T08:19:24.710Z,100328.60
2022-09-12T08:21:57.527Z,100323.00
2022-09-12T08:24:30.529Z,100324.20
2022-09-12T08:27:03.202Z,100316.00
2022-09-12T08:29:35.896Z,100318.40
2022-09-12T08:32:09.651Z,100320.40
2022-09-12T08:34:42.255Z,100315.40
2022-09-12T08:37:15.897Z,100314.40
2022-09-12T08:39:48.674Z,100316.60
2022-09-12T08:42:31.367Z,100312.00
2022-09-12T08:45:19.901Z,100310.80
2022-09-12T08:47:53.588Z,100313.80
2022-09-12T08:50:31.153Z,100309.80
2022-09-12T08:53:08.105Z,100309.00
2022-09-12T08:55:44.919Z,100308.00
2022-09-12T08:58:20.396Z,100313.00
2022-09-12T09:01:15.687Z,100313.00
2022-09-12T09:04:16.112Z,100307.00
2022-09-12T09:07:10.534Z,100308.00
2022-09-12T09:10:00.583Z,100317.80
2022-09-12T09:12:36.399Z,100317.40
2022-09-12T09:15:45.536Z,100316.40
2022-09-12T09:18:25.231Z,100322.40
2022-09-12T09:21:04.005Z,100320.20
2022-09-12T09:23:44.152Z,100329.00
2022-09-12T09:26:26.853Z,100328.20
2022-09-12T09:29:03.823Z,100335.20
2022-09-12T09:31:41.608Z,100328.80
2022-09-12T09:34:22.087Z,100326.60
2022-09-12T09:37:03.316Z,100325.60
2022-09-12T09:40:01.270Z,100322.60
2022-09-12T09:42:43.919Z,100324.00
2022-09-12T09:45:24.413Z,100323.80
2022-09-12T09:48:03.029Z,100321.80
2022-09-12T09:50:35.961Z,100317.40
2022-09-12T09:53:14.839Z,100315.00
2022-09-12T09:55:48.242Z,100312.40
2022-09-12T09:58:37.608Z,100311.40
2022-09-12T10:01:17.653Z,100304.20
2022-09-12T10:03:53.116Z,100302.40
2022-09-12T10:06:34.463Z,100309.00
2022-09-12T10:09:23.931Z,100311.20
2022-09-12T10:11:58.928Z,100312.60
2022-09-12T10:14:39.935Z,100315.20
2022-09-12T10:17:34.618Z,100315.20
2022-09-12T10:20:34.199Z,100307.40
2022-09-12T10:23:24.980Z,100306.00
2022-09-12T10:26:02.048Z,100315.00
2022-09-12T10:28:39.759Z,100310.00
2022-09-12T10:31:16.784Z,100314.00
2022-09-12T10:33:53.183Z,100315.00
2022-09-12T10:36:27.070Z,100305.80
2022-09-12T10:39:02.865Z,100303.80
2022-09-12T10:41:42.147Z,100300.60
2022-09-12T10:44:26.262Z,100300.60
2022-09-12T10:47:01.206Z,100305.20
2022-09-12T10:49:38.477Z,100307.40
2022-09-12T10:52:25.257Z,100308.80
2022-09-12T10:54:58.575Z,100307.60
2022-09-12T10:58:15.595Z,100310.20
2022-09-12T11:01:00.315Z,100313.40
2022-09-12T11:03:54.515Z,100305.60
2022-09-12T11:06:40.019Z,100312.20
2022-09-12T11:09:23.358Z,100307.00
2022-09-12T11:12:09.452Z,100318.00
2022-09-12T11:14:58.459Z,100310.60
2022-09-12T11:17:43.681Z,100331.40
2022-09-12T11:20:36.943Z,100325.80
2022-09-12T11:23:46.110Z,100330.00
2022-09-12T11:26:33.811Z,100317.40
2022-09-12T11:29:20.419Z,100317.40
2022-09-12T11:32:34.370Z,100321.00
2022-09-12T11:35:19.185Z,100325.80
2022-09-12T11:38:09.425Z,100315.40
2022-09-12T11:40:47.599Z,100314.00
2022-09-12T11:43:33.419Z,100318.00
2022-09-12T11:46:16.999Z,100316.40
2022-09-12T11:49:00.683Z,100314.20
2022-09-12T11:51:42.611Z,100317.00
2022-09-12T11:54:26.304Z,100327.80
2022-09-12T11:57:09.841Z,100321.00
2022-09-12T11:59:52.067Z,100323.60
2022-09-12T12:02:29.461Z,100324.80
2022-09-12T12:05:20.584Z,100322.40
2022-09-12T12:07:57.905Z,100329.20
2022-09-12T12:10:38.026Z,100326.40
2022-09-12T12:13:22.571Z,100320.80
2022-09-12T12:15:59.239Z,100327.60
2022-09-12T12:18:34.408Z,100326.60
2022-09-12T12:24:21.417Z,100324.80
2022-09-12T12:27:03.927Z,100322.60
2022-09-12T12:29:47.276Z,100317.60
2022-09-12T12:32:30.028Z,100320.40
2022-09-12T12:35:41.769Z,100321.00
2022-09-12T12:38:32.253Z,100317.80
2022-09-12T12:41:49.217Z,100315.60
2022-09-12T12:44:53.528Z,100318.20
2022-09-12T12:47:29.738Z,100316.00
2022-09-12T12:50:06.218Z,100316.00
2022-09-12T12:52:51.898Z,100310.00
2022-09-12T12:55:29.680Z,100314.20
2022-09-12T12:58:03.745Z,100319.00
2022-09-12T13:00:40.028Z,100315.20
2022-09-12T13:03:29.487Z,100317.20
2022-09-12T13:06:04.662Z,100314.00
2022-09-12T13:08:41.556Z,100317.20
2022-09-12T13:11:30.248Z,100311.20
2022-09-12T13:14:09.887Z,100308.20
2022-09-12T13:16:56.586Z,100311.40
2022-09-12T13:19:34.593Z,100311.00
2022-09-12T13:22:10.483Z,100312.40
2022-09-12T13:24:52.657Z,100309.60
2022-09-12T13:27:27.243Z,100306.20
2022-09-12T13:30:16.758Z,100308.00
2022-09-12T13:32:49.532Z,100300.80
2022-09-12T13:35:32.450Z,100295.20
2022-09-12T13:38:13.607Z,100288.60
2022-09-12T13:41:02.691Z,100292.40
2022-09-12T13:43:44.669Z,100293.00
2022-09-12T13:46:24.105Z,100288.00
2022-09-12T13:48:57.181Z,100285.80
2022-09-12T13:51:33.327Z,100279.60
2022-09-12T13:54:08.124Z,100282.80
2022-09-12T13:56:50.808Z,100281.00
2022-09-12T13:59:23.709Z,100286.80
2022-09-12T14:01:56.793Z,100288.80
2022-09-12T14:05:04.726Z,100282.40
2022-09-12T14:07:46.807Z,100277.20
2022-09-12T14:10:28.259Z,100276.20
2022-09-12T14:13:02.405Z,100277.20
2022-09-12T14:15:39.246Z,100277.40
2022-09-12T14:18:25.733Z,100278.00
2022-09-12T14:21:04.754Z,100275.80
2022-09-12T14:23:39.579Z,100279.20
2022-09-12T14:26:18.009Z,100277.40
2022-09-12T14:28:52.311Z,100281.40
2022-09-12T14:31:34.167Z,100272.60
2022-09-12T14:34:17.796Z,100270.00
2022-09-12T14:36:55.423Z,100276.00
2022-09-12T14:39:35.312Z,100273.40
2022-09-12T14:42:15.880Z,100269.60
2022-09-12T14:45:02.825Z,100271.00
2022-09-12T14:47:41.307Z,100273.80
2022-09-12T14:50:23.749Z,100277.60
2022-09-12T14:53:22.686Z,100272.20
2022-09-12T14:56:07.138Z,100273.60
2022-09-12T14:58:40.663Z,100267.20
2022-09-12T15:01:30.317Z,100268.20
2022-09-12T15:04:03.490Z,100268.60
2022-09-12T15:06:39.555Z,100267.00
2022-09-12T15:09:15.949Z,100272.00
2022-09-12T15:11:48.687Z,100269.20
2022-09-12T15:14:22.000Z,100261.80
2022-09-12T15:16:54.756Z,100266.40
2022-09-12T15:19:27.472Z,100258.40
2022-09-12T15:22:00.522Z,100259.80
2022-09-12T15:24:33.102Z,100261.20
2022-09-12T15:27:07.008Z,100255.80
2022-09-12T15:29:40.004Z,100266.20
2022-09-12T15:32:26.113Z,100265.40
2022-09-12T15:34:59.257Z,100261.40
2022-09-12T15:37:32.176Z,100264.40
2022-09-12T15:40:05.997Z,100269.20
2022-09-12T15:42:39.175Z,100268.60
2022-09-12T15:45:21.072Z,100258.80
2022-09-12T15:47:53.767Z,100261.00
2022-09-12T15:50:28.401Z,100261.00
2022-09-12T15:53:02.115Z,100266.00
2022-09-12T15:55:36.244Z,100263.40
2022-09-12T15:58:09.391Z,100260.80
2022-09-12T16:00:42.062Z,100264.40
2022-09-12T16:03:23.967Z,100263.60
2022-09-12T16:05:59.707Z,100264.20
2022-09-12T16:08:33.716Z,100267.60
2022-09-12T16:11:21.147Z,100264.40
2022-09-12T16:13:55.249Z,100260.00
2022-09-12T16:16:28.039Z,100261.40
2022-09-12T16:19:00.859Z,100257.80
2022-09-12T16:21:34.183Z,100253.80
2022-09-12T16:24:08.188Z,100251.80
2022-09-12T16:26:41.216Z,100246.60
2022-09-12T16:29:15.777Z,100247.00
2022-09-12T16:31:48.418Z,100248.40
2022-09-12T16:34:21.508Z,100247.60
2022-09-12T16:36:54.188Z,100247.60
2022-09-12T16:39:26.972Z,100253.20
2022-09-12T16:41:59.993Z,100247.60
2022-09-12T16:44:33.661Z,100246.80
2022-09-12T16:47:06.885Z,100248.40
2022-09-12T16:49:39.934Z,100246.60
2022-09-12T16:52:16.847Z,100241.60
2022-09-12T16:54:49.596Z,100245.80
2022-09-12T16:57:22.788Z,100241.00
2022-09-12T16:59:55.565Z,100241.40
2022-09-12T17:02:28.680Z,100235.60
2022-09-12T17:05:01.549Z,100231.40
2022-09-12T17:07:34.672Z,100229.60
2022-09-12T17:10:08.715Z,100229.40
2022-09-12T17:12:41.427Z,100223.80
2022-09-12T17:15:15.442Z,100231.20
2022-09-12T17:17:48.726Z,100233.40
2022-09-12T17:20:22.026Z,100231.60
2022-09-12T17:22:54.704Z,100231.40
2022-09-12T17:25:28.615Z,100227.40
2022-09-12T17:28:02.156Z,100231.00
2022-09-12T17:30:37.314Z,100233.60
2022-09-12T17:33:11.673Z,100239.40
2022-09-12T17:35:45.395Z,100237.60
2022-09-12T17:38:22.157Z,100236.20
2022-09-12T17:41:08.211Z,100243.20
2022-09-12T17:43:42.155Z,100239.60
2022-09-12T17:46:15.433Z,100242.20
2022-09-12T17:48:51.813Z,100244.60
2022-09-12T17:51:27.554Z,100242.40
2022-09-12T17:54:07.122Z,100240.40
2022-09-12T17:56:41.017Z,100239.80
2022-09-12T17:59:19.338Z,100246.80
2022-09-12T18:02:09.892Z,100251.60
2022-09-12T18:04:42.258Z,100250.20
2022-09-12T18:07:16.286Z,100250.60
2022-09-12T18:09:50.260Z,100250.80
2022-09-12T18:12:23.750Z,100248.00
2022-09-12T18:14:56.604Z,100250.80
2022-09-12T18:17:29.291Z,100253.60
2022-09-12T18:20:02.214Z,100255.80
2022-09-12T18:22:35.723Z,100250.80
2022-09-12T18:25:11.013Z,100256.80
2022-09-12T18:27:44.710Z,100255.20
2022-09-12T18:30:22.154Z,100253.80
2022-09-12T18:32:55.676Z,100254.60
2022-09-12T18:35:28.735Z,100254.40
2022-09-12T18:38:01.977Z,100253.20
2022-09-12T18:40:35.148Z,100253.80
2022-09-12T18:43:08.071Z,100254.60
2022-09-12T18:45:41.351Z,100256.40
2022-09-12T18:48:15.160Z,100253.80
2022-09-12T18:50:48.094Z,100252.40
2022-09-12T18:53:22.130Z,100251.80
2022-09-12T18:55:55.016Z,100249.20
2022-09-12T18:58:28.461Z,100246.80
2022-09-12T19:01:01.356Z,100251.40
2022-09-12T19:03:34.566Z,100253.80
2022-09-12T19:06:12.794Z,100248.40
2022-09-12T19:08:46.320Z,100244.40
2022-09-12T19:11:20.077Z,100252.00
2022-09-12T19:13:55.409Z,100252.40
2022-09-12T19:16:30.089Z,100244.80
2022-09-12T19:19:03.761Z,100248.60
2022-09-12T19:21:37.802Z,100244.00
2022-09-12T19:24:12.123Z,100245.00
2022-09-12T19:26:45.110Z,100237.60
2022-09-12T19:29:18.703Z,100237.80
2022-09-12T19:31:51.595Z,100242.60
2022-09-12T19:34:25.163Z,100236.80
2022-09-12T19:36:59.830Z,100237.20
2022-09-12T19:39:33.526Z,100231.20
2022-09-12T19:42:06.308Z,100229.00
2022-09-12T19:44:39.192Z,100229.40
2022-09-12T19:47:11.784Z,100231.80
2022-09-12T19:49:44.879Z,100230.20
2022-09-12T19:52:17.853Z,100226.40
2022-09-12T19:54:50.779Z,100224.20
2022-09-12T19:57:23.683Z,100219.40
2022-09-12T19:59:57.019Z,100217.60
2022-09-12T20:02:30.174Z,100222.00
2022-09-12T20:05:03.297Z,100214.40
2022-09-12T20:07:36.186Z,100216.00
2022-09-12T20:10:11.386Z,100216.40
2022-09-12T20:12:44.406Z,100213.00
2022-09-12T20:15:17.756Z,100208.40
2022-09-12T20:17:54.073Z,100207.40
2022-09-12T20:20:27.467Z,100204.20
2022-09-12T20:23:00.258Z,100203.00
2022-09-12T20:25:34.062Z,100201.60
2022-09-12T20:28:06.830Z,100206.40
2022-09-12T20:30:39.666Z,100204.40
2022-09-12T20:33:12.436Z,100204.80
2022-09-12T20:35:45.178Z,100204.60
2022-09-12T20:38:18.072Z,100207.80
2022-09-12T20:40:53.613Z,100201.00
2022-09-12T20:43:26.289Z,100198.60
2022-09-12T20:45:59.305Z,100195.80
2022-09-12T20:48:33.402Z,100193.80
2022-09-12T20:51:06.274Z,100195.20
2022-09-12T20:53:39.368Z,100192.40
2022-09-12T20:56:12.554Z,100190.20
2022-09-12T20:58:45.250Z,100188.60
2022-09-12T21:01:19.076Z,100191.40
2022-09-12T21:03:52.138Z,100186.80
2022-09-12T21:06:25.253Z,100188.40
2022-09-12T21:09:00.745Z,100182.80
2022-09-12T21:11:33.794Z,100185.80
2022-09-12T21:14:06.894Z,100188.80
2022-09-12T21:16:39.730Z,100191.20
2022-09-12T21:19:12.527Z,100193.40
2022-09-12T21:21:45.443Z,100194.00
2022-09-12T21:24:19.652Z,100194.80
2022-09-12T21:26:52.494Z,100197.80
2022-09-12T21:29:25.376Z,100193.40
2022-09-12T21:31:57.970Z,100194.80
2022-09-12T21:34:31.032Z,100194.60
2022-09-12T21:37:03.826Z,100195.80
2022-09-12T21:39:36.628Z,100196.40
2022-09-12T21:42:10.268Z,100193.00
2022-09-12T21:44:42.998Z,100193.80
2022-09-12T21:47:15.674Z,100192.40
2022-09-12T21:49:48.352Z,100188.80
2022-09-12T21:52:21.034Z,100192.00
2022-09-12T21:54:53.719Z,100190.00
2022-09-12T21:57:26.510Z,100184.60
2022-09-12T21:59:59.485Z,100182.60
2022-09-12T22:02:32.369Z,100186.20
2022-09-12T22:05:05.774Z,100184.00
2022-09-12T22:07:39.083Z,100181.60
2022-09-12T22:10:13.077Z,100175.40
2022-09-12T22:12:46.511Z,100177.40
2022-09-12T22:15:40.087Z,100178.60
2022-09-12T22:18:13.267Z,100180.40
2022-09-12T22:20:46.227Z,100178.00
2022-09-12T22:23:37.071Z,100180.00
2022-09-12T22:26:10.526Z,100176.20
2022-09-12T22:28:43.640Z,100175.20
2022-09-12T22:31:17.668Z,100171.80
2022-09-12T22:33:51.763Z,100170.00
2022-09-12T22:36:27.127Z,100169.80
2022-09-12T22:39:02.331Z,100168.80
2022-09-12T22:41:35.205Z,100170.40
2022-09-12T22:44:08.184Z,100168.80
2022-09-12T22:46:41.019Z,100162.40
2022-09-12T22:49:14.008Z,100160.60
2022-09-12T22:51:47.344Z,100160.00
2022-09-12T22:54:20.442Z,100160.40
2022-09-12T22:56:53.344Z,100156.40
2022-09-12T22:59:26.349Z,100154.40
2022-09-12T23:01:59.104Z,100154.00
2022-09-12T23:04:31.879Z,100150.60
2022-09-12T23:07:04.987Z,100150.60
2022-09-12T23:09:37.763Z,100151.00
2022-09-12T23:12:11.352Z,100147.80
2022-09-12T23:14:46.356Z,100151.80
2022-09-12T23:17:19.166Z,100147.00
2022-09-12T23:19:52.768Z,100139.40
2022-09-12T23:22:25.547Z,100138.40
2022-09-12T23:24:58.226Z,100134.00
2022-09-12T23:27:32.249Z,100134.60
2022-09-12T23:30:07.526Z,100127.80
2022-09-12T23:32:40.268Z,100128.80
2022-09-12T23:35:13.448Z,100128.20
2022-09-12T23:37:46.338Z,100122.40
2022-09-12T23:40:19.467Z,100119.40
2022-09-12T23:42:52.443Z,100117.40
2022-09-12T23:45:25.255Z,100114.60
2022-09-12T23:47:58.307Z,100115.80
2022-09-12T23:57:14.952Z,100108.80
2022-09-12T23:59:47.732Z,100107.40
